createdAt,value
2024-04-23T00:00:25.192Z,78.38
2024-04-23T00:01:27.540Z,78.38
2024-04-23T00:02:29.918Z,78.49
2024-04-23T00:03:32.356Z,78.42
2024-04-23T00:04:34.607Z,78.37
2024-04-23T00:05:36.953Z,78.31
2024-04-23T00:06:39.252Z,78.26
2024-04-23T00:07:41.565Z,78.27
2024-04-23T00:08:44.127Z,78.25
2024-04-23T00:09:46.497Z,78.29
2024-04-23T00:10:48.934Z,78.39
2024-04-23T00:11:51.769Z,78.44
2024-04-23T00:12:54.155Z,78.39
2024-04-23T00:13:56.983Z,78.30
2024-04-23T00:14:59.458Z,78.20
2024-04-23T00:16:01.731Z,78.03
2024-04-23T00:17:05.025Z,77.85
2024-04-23T00:18:07.698Z,77.64
2024-04-23T00:19:09.915Z,77.55
2024-04-23T00:20:12.494Z,77.47
2024-04-23T00:21:14.694Z,77.45
2024-04-23T00:22:16.989Z,77.46
2024-04-23T00:23:19.208Z,77.36
2024-04-23T00:24:21.506Z,77.26
2024-04-23T00:25:25.448Z,77.19
2024-04-23T00:26:28.073Z,77.14
2024-04-23T00:27:30.407Z,77.10
2024-04-23T00:28:32.692Z,77.12
2024-04-23T00:29:34.932Z,77.09
2024-04-23T00:30:37.316Z,77.07
2024-04-23T00:31:39.889Z,77.06
2024-04-23T00:32:42.054Z,77.01
2024-04-23T00:33:44.571Z,76.95
2024-04-23T00:34:47.091Z,76.92
2024-04-23T00:35:49.279Z,76.92
2024-04-23T00:36:54.159Z,76.88
2024-04-23T00:37:56.589Z,76.84
2024-04-23T00:38:58.984Z,76.75
2024-04-23T00:40:01.433Z,76.78
2024-04-23T00:41:03.828Z,76.95
2024-04-23T00:42:06.216Z,77.16
2024-04-23T00:43:08.647Z,77.28
2024-04-23T00:44:10.784Z,77.46
2024-04-23T00:45:14.705Z,77.51
2024-04-23T00:46:17.568Z,77.51
2024-04-23T00:47:21.072Z,77.51
2024-04-23T00:48:23.701Z,77.56
2024-04-23T00:49:26.260Z,77.46
2024-04-23T00:50:28.828Z,77.48
2024-04-23T00:51:31.352Z,77.52
2024-04-23T00:52:33.930Z,77.47
2024-04-23T00:53:36.162Z,77.42
2024-04-23T00:54:38.520Z,77.42
2024-04-23T00:55:41.189Z,77.42
2024-04-23T00:56:44.042Z,77.46
2024-04-23T00:57:46.172Z,77.54
2024-04-23T00:58:48.867Z,77.62
2024-04-23T00:59:51.270Z,77.66
2024-04-23T01:00:54.235Z,77.68
2024-04-23T01:01:56.978Z,77.76
2024-04-23T01:02:59.944Z,77.74
2024-04-23T01:04:03.506Z,77.73
2024-04-23T01:05:05.980Z,77.76
2024-04-23T01:06:10.961Z,77.77
2024-04-23T01:07:13.262Z,77.79
2024-04-23T01:08:15.629Z,77.68
2024-04-23T01:09:18.720Z,77.53
2024-04-23T01:10:21.254Z,77.29
2024-04-23T01:11:23.544Z,77.10
2024-04-23T01:12:25.881Z,76.97
2024-04-23T01:13:28.286Z,76.89
2024-04-23T01:14:31.442Z,76.93
2024-04-23T01:15:34.836Z,77.01
2024-04-23T01:16:42.584Z,77.09
2024-04-23T01:17:46.224Z,77.15
2024-04-23T01:18:48.836Z,77.19
2024-04-23T01:19:54.803Z,77.28
2024-04-23T01:20:59.246Z,77.40
2024-04-23T01:22:10.152Z,77.55
2024-04-23T01:23:18.304Z,77.58
2024-04-23T01:24:23.664Z,77.58
2024-04-23T01:25:26.942Z,77.40
2024-04-23T01:26:29.931Z,77.27
2024-04-23T01:27:33.164Z,77.08
2024-04-23T01:28:37.186Z,76.95
2024-04-23T01:29:40.206Z,76.76
2024-04-23T01:30:43.913Z,76.65
2024-04-23T01:31:46.830Z,76.57
2024-04-23T01:32:49.878Z,76.55
2024-04-23T01:33:54.219Z,76.55
2024-04-23T01:34:57.128Z,76.50
2024-04-23T01:35:59.599Z,76.46
2024-04-23T01:37:03.539Z,76.40
2024-04-23T01:38:06.159Z,76.39
2024-04-23T01:39:08.652Z,76.29
2024-04-23T01:40:11.764Z,76.25
2024-04-23T01:41:14.248Z,76.12
2024-04-23T01:42:17.103Z,76.03
2024-04-23T01:43:19.583Z,75.90
2024-04-23T01:44:21.875Z,75.83
2024-04-23T01:45:24.543Z,75.77
2024-04-23T01:46:27.414Z,75.73
2024-04-23T01:47:30.021Z,75.55
2024-04-23T01:48:32.752Z,75.43
2024-04-23T01:49:35.417Z,75.29
2024-04-23T01:50:37.800Z,75.21
2024-04-23T01:51:40.400Z,75.12
2024-04-23T01:52:43.509Z,75.02
2024-04-23T01:53:45.692Z,74.99
2024-04-23T01:54:48.520Z,75.07
2024-04-23T01:55:50.694Z,75.18
2024-04-23T01:56:53.456Z,75.30
2024-04-23T01:57:55.985Z,75.45
2024-04-23T01:58:58.299Z,75.56
2024-04-23T02:00:04.191Z,75.65
2024-04-23T02:01:07.350Z,75.79
2024-04-23T02:02:09.824Z,76.00
2024-04-23T02:03:13.734Z,76.22
2024-04-23T02:04:18.686Z,76.35
2024-04-23T02:05:21.663Z,76.53
2024-04-23T02:06:24.686Z,76.72
2024-04-23T02:07:27.359Z,76.94
2024-04-23T02:08:29.721Z,77.14
2024-04-23T02:09:33.309Z,77.23
2024-04-23T02:10:38.560Z,77.22
2024-04-23T02:11:41.545Z,77.02
2024-04-23T02:12:44.020Z,76.94
2024-04-23T02:13:46.459Z,76.96
2024-04-23T02:14:48.656Z,76.98
2024-04-23T02:15:50.825Z,77.07
2024-04-23T02:16:53.398Z,77.15
2024-04-23T02:17:56.134Z,77.18
2024-04-23T02:18:58.328Z,77.13
2024-04-23T02:20:02.300Z,76.90
2024-04-23T02:21:05.282Z,76.57
2024-04-23T02:22:07.589Z,76.49
2024-04-23T02:23:09.846Z,76.63
2024-04-23T02:24:12.225Z,76.46
2024-04-23T02:25:14.501Z,75.88
2024-04-23T02:26:16.754Z,75.70
2024-04-23T02:27:19.269Z,75.60
2024-04-23T02:28:21.561Z,75.87
2024-04-23T02:29:23.762Z,76.06
2024-04-23T02:30:25.803Z,76.10
2024-04-23T02:31:28.310Z,76.26
2024-04-23T02:32:30.615Z,76.39
2024-04-23T02:33:33.010Z,76.52
2024-04-23T02:34:35.401Z,76.63
2024-04-23T02:35:41.490Z,76.82
2024-04-23T02:36:43.745Z,76.85
2024-04-23T02:37:46.019Z,76.72
2024-04-23T02:38:48.393Z,76.60
2024-04-23T02:39:50.639Z,76.72
2024-04-23T02:40:53.095Z,76.52
2024-04-23T02:41:55.459Z,76.46
2024-04-23T02:42:57.756Z,76.30
2024-04-23T02:44:00.138Z,76.27
2024-04-23T02:45:02.639Z,76.38
2024-04-23T02:46:06.026Z,76.30
2024-04-23T02:47:08.301Z,76.15
2024-04-23T02:48:10.748Z,76.20
2024-04-23T02:49:13.239Z,75.71
2024-04-23T02:50:15.535Z,75.60
2024-04-23T02:51:17.622Z,75.26
2024-04-23T02:52:19.881Z,75.27
2024-04-23T02:53:21.946Z,75.37
2024-04-23T02:54:24.312Z,74.96
2024-04-23T02:55:27.848Z,74.50
2024-04-23T02:56:30.061Z,74.46
2024-04-23T02:57:32.405Z,74.22
2024-04-23T02:58:34.782Z,74.17
2024-04-23T02:59:37.061Z,74.11
2024-04-23T03:00:39.326Z,74.19
2024-04-23T03:01:41.579Z,74.22
2024-04-23T03:02:43.864Z,74.23
2024-04-23T03:03:46.369Z,74.13
2024-04-23T03:04:48.780Z,73.92
2024-04-23T03:05:51.338Z,73.83
2024-04-23T03:06:53.690Z,73.98
2024-04-23T03:07:56.000Z,74.11
2024-04-23T03:08:58.277Z,74.32
2024-04-23T03:10:00.665Z,74.39
2024-04-23T03:11:03.270Z,74.30
2024-04-23T03:12:05.929Z,73.94
2024-04-23T03:13:08.518Z,73.79
2024-04-23T03:14:10.699Z,73.82
2024-04-23T03:15:12.987Z,73.76
2024-04-23T03:16:15.921Z,73.68
2024-04-23T03:17:18.137Z,73.75
2024-04-23T03:18:20.373Z,73.73
2024-04-23T03:19:22.749Z,73.85
2024-04-23T03:20:25.218Z,73.77
2024-04-23T03:21:27.418Z,73.67
2024-04-23T03:22:29.691Z,73.77
2024-04-23T03:23:31.905Z,73.90
2024-04-23T03:24:34.242Z,74.03
2024-04-23T03:25:38.729Z,74.13
2024-04-23T03:26:40.817Z,74.25
2024-04-23T03:27:42.994Z,74.32
2024-04-23T03:28:45.370Z,74.49
2024-04-23T03:29:47.660Z,74.74
2024-04-23T03:30:50.364Z,74.79
2024-04-23T03:32:03.683Z,74.75
2024-04-23T03:33:06.397Z,74.63
2024-04-23T03:34:08.701Z,74.62
2024-04-23T03:35:11.384Z,74.74
2024-04-23T03:36:17.661Z,74.70
2024-04-23T03:37:18.616Z,74.52
2024-04-23T03:38:20.703Z,74.53
2024-04-23T03:39:22.752Z,74.47
2024-04-23T03:40:25.415Z,74.44
2024-04-23T03:41:28.304Z,74.41
2024-04-23T03:42:30.727Z,74.21
2024-04-23T03:43:32.961Z,74.13
2024-04-23T03:44:37.609Z,74.21
2024-04-23T03:45:39.320Z,74.25
2024-04-23T03:46:41.773Z,74.46
2024-04-23T03:47:44.161Z,74.50
2024-04-23T03:48:46.418Z,74.57
2024-04-23T03:49:48.744Z,74.73
2024-04-23T03:50:51.489Z,74.95
2024-04-23T03:51:54.062Z,75.07
2024-04-23T03:52:56.393Z,74.77
2024-04-23T03:53:58.617Z,74.52
2024-04-23T03:55:00.841Z,74.47
2024-04-23T03:56:03.492Z,74.55
2024-04-23T03:57:05.644Z,74.66
2024-04-23T03:58:08.033Z,74.91
2024-04-23T03:59:10.158Z,74.92
2024-04-23T04:00:13.299Z,75.01
2024-04-23T04:01:15.480Z,74.90
2024-04-23T04:02:17.961Z,75.03
2024-04-23T04:03:20.332Z,75.00
2024-04-23T04:04:23.126Z,74.77
2024-04-23T04:05:26.153Z,74.89
2024-04-23T04:06:28.456Z,74.98
2024-04-23T04:07:30.822Z,74.83
2024-04-23T04:08:36.394Z,74.85
2024-04-23T04:09:38.627Z,74.94
2024-04-23T04:10:41.181Z,75.15
2024-04-23T04:11:43.752Z,75.27
2024-04-23T04:12:46.258Z,75.20
2024-04-23T04:13:48.568Z,74.85
2024-04-23T04:14:50.844Z,74.93
2024-04-23T04:15:53.082Z,74.98
2024-04-23T04:17:09.200Z,75.25
2024-04-23T04:18:11.690Z,75.59
2024-04-23T04:19:13.968Z,75.79
2024-04-23T04:20:16.300Z,75.98
2024-04-23T04:21:18.866Z,76.32
2024-04-23T04:22:21.124Z,76.65
2024-04-23T04:23:23.668Z,77.01
2024-04-23T04:24:25.968Z,77.03
2024-04-23T04:25:28.647Z,77.00
2024-04-23T04:26:31.382Z,77.15
2024-04-23T04:27:33.704Z,77.08
2024-04-23T04:28:36.006Z,77.09
2024-04-23T04:29:38.212Z,77.08
2024-04-23T04:30:40.925Z,77.11
2024-04-23T04:31:43.331Z,76.97
2024-04-23T04:32:45.971Z,76.93
2024-04-23T04:33:48.432Z,76.85
2024-04-23T04:34:50.753Z,76.49
2024-04-23T04:35:53.466Z,76.40
2024-04-23T04:36:56.323Z,76.52
2024-04-23T04:37:58.525Z,76.60
2024-04-23T04:39:01.192Z,76.76
2024-04-23T04:40:04.020Z,76.73
2024-04-23T04:41:06.556Z,76.79
2024-04-23T04:42:08.861Z,76.79
2024-04-23T04:43:11.316Z,76.97
2024-04-23T04:44:13.577Z,77.39
2024-04-23T04:45:15.876Z,77.61
2024-04-23T04:46:18.233Z,77.72
2024-04-23T04:47:20.523Z,77.75
2024-04-23T04:48:22.904Z,77.73
2024-04-23T04:49:25.594Z,77.57
2024-04-23T04:50:28.610Z,77.42
2024-04-23T04:51:30.870Z,77.39
2024-04-23T04:52:33.127Z,77.02
2024-04-23T04:53:35.595Z,76.80
2024-04-23T04:54:37.787Z,76.77
2024-04-23T04:55:40.200Z,76.83
2024-04-23T04:56:42.624Z,76.94
2024-04-23T04:57:45.002Z,76.95
2024-04-23T04:58:47.395Z,76.89
2024-04-23T04:59:50.078Z,76.73
2024-04-23T05:00:52.481Z,76.45
2024-04-23T05:01:54.788Z,76.49
2024-04-23T05:02:57.085Z,76.53
2024-04-23T05:03:59.304Z,76.72
2024-04-23T05:05:01.800Z,76.59
2024-04-23T05:06:04.800Z,76.44
2024-04-23T05:07:07.015Z,76.52
2024-04-23T05:08:09.736Z,76.46
2024-04-23T05:09:12.624Z,76.04
2024-04-23T05:10:15.518Z,75.72
2024-04-23T05:11:17.941Z,75.69
2024-04-23T05:12:20.215Z,75.73
2024-04-23T05:13:22.558Z,75.60
2024-04-23T05:14:24.681Z,75.29
2024-04-23T05:15:27.157Z,75.29
2024-04-23T05:16:29.845Z,75.32
2024-04-23T05:17:32.400Z,75.45
2024-04-23T05:18:37.036Z,75.49
2024-04-23T05:19:38.933Z,75.60
2024-04-23T05:20:41.576Z,75.99
2024-04-23T05:21:44.173Z,76.15
2024-04-23T05:22:46.988Z,76.21
2024-04-23T05:23:49.501Z,75.97
2024-04-23T05:24:52.047Z,75.86
2024-04-23T05:25:54.291Z,75.40
2024-04-23T05:26:56.982Z,74.64
2024-04-23T05:27:59.256Z,74.58
2024-04-23T05:29:01.507Z,74.70
2024-04-23T05:30:04.647Z,74.59
2024-04-23T05:31:06.943Z,74.45
2024-04-23T05:32:11.743Z,74.32
2024-04-23T05:33:14.257Z,73.86
2024-04-23T05:34:16.606Z,73.75
2024-04-23T05:35:19.210Z,73.79
2024-04-23T05:36:21.808Z,73.82
2024-04-23T05:37:24.134Z,73.77
2024-04-23T05:38:26.348Z,73.74
2024-04-23T05:39:28.871Z,73.80
2024-04-23T05:40:31.594Z,73.79
2024-04-23T05:41:34.300Z,73.42
2024-04-23T05:42:36.492Z,73.17
2024-04-23T05:43:38.872Z,73.11
2024-04-23T05:44:41.154Z,73.24
2024-04-23T05:45:43.583Z,73.23
2024-04-23T05:46:46.107Z,73.20
2024-04-23T05:48:25.746Z,73.13
2024-04-23T05:50:27.329Z,72.97
2024-04-23T05:52:29.938Z,72.82
2024-04-23T05:54:23.282Z,71.99
2024-04-23T05:55:46.662Z,71.95
2024-04-23T05:56:48.568Z,71.48
2024-04-23T05:57:51.232Z,71.18
2024-04-23T05:58:53.718Z,70.96
2024-04-23T05:59:55.942Z,70.87
2024-04-23T06:01:00.260Z,70.54
2024-04-23T06:02:02.511Z,70.58
2024-04-23T06:03:08.004Z,70.93
2024-04-23T06:04:10.535Z,71.33
2024-04-23T06:05:13.401Z,71.28
2024-04-23T06:06:15.978Z,70.65
2024-04-23T06:07:20.054Z,69.96
2024-04-23T06:08:22.471Z,69.59
2024-04-23T06:09:24.825Z,69.42
2024-04-23T06:10:27.282Z,69.37
2024-04-23T06:11:30.032Z,69.40
2024-04-23T06:12:32.724Z,69.60
2024-04-23T06:13:35.163Z,69.53
2024-04-23T06:14:37.353Z,69.63
2024-04-23T06:15:39.725Z,69.46
2024-04-23T06:16:42.136Z,69.59
2024-04-23T06:17:47.977Z,69.59
2024-04-23T06:18:48.908Z,69.57
2024-04-23T06:19:52.217Z,69.62
2024-04-23T06:20:55.136Z,69.85
2024-04-23T06:21:57.401Z,69.63
2024-04-23T06:22:59.763Z,69.42
2024-04-23T06:24:02.071Z,69.64
2024-04-23T06:25:07.430Z,69.21
2024-04-23T06:26:10.466Z,68.96
2024-04-23T06:27:12.937Z,68.52
2024-04-23T06:28:15.252Z,68.06
2024-04-23T06:29:17.450Z,68.00
2024-04-23T06:30:20.268Z,68.07
2024-04-23T06:31:22.513Z,68.25
2024-04-23T06:32:25.083Z,68.14
2024-04-23T06:33:27.743Z,67.95
2024-04-23T06:34:29.914Z,67.58
2024-04-23T06:35:32.227Z,67.52
2024-04-23T06:36:35.051Z,67.78
2024-04-23T06:37:37.696Z,67.71
2024-04-23T06:38:39.976Z,67.61
2024-04-23T06:39:43.592Z,66.68
2024-04-23T06:40:46.706Z,66.26
2024-04-23T06:41:49.010Z,66.08
2024-04-23T06:42:51.334Z,66.13
2024-04-23T06:43:53.641Z,65.93
2024-04-23T06:44:55.885Z,66.15
2024-04-23T06:46:00.067Z,66.15
2024-04-23T06:47:02.471Z,65.85
2024-04-23T06:48:06.315Z,65.45
2024-04-23T06:49:09.342Z,65.74
2024-04-23T06:50:12.135Z,65.43
2024-04-23T06:51:14.413Z,64.89
2024-04-23T06:52:16.990Z,64.73
2024-04-23T06:53:19.423Z,64.58
2024-04-23T06:54:21.869Z,64.07
2024-04-23T06:55:25.920Z,63.79
2024-04-23T06:56:28.454Z,63.71
2024-04-23T06:57:31.221Z,63.48
2024-04-23T06:58:33.399Z,63.21
2024-04-23T06:59:35.589Z,63.11
2024-04-23T07:00:38.033Z,63.02
2024-04-23T07:01:40.475Z,63.21
2024-04-23T07:02:42.809Z,63.29
2024-04-23T07:03:45.143Z,63.22
2024-04-23T07:04:47.482Z,63.01
2024-04-23T07:05:51.435Z,62.89
2024-04-23T07:06:54.641Z,62.94
2024-04-23T07:07:56.890Z,62.67
2024-04-23T07:08:59.232Z,62.75
2024-04-23T07:10:01.622Z,62.70
2024-04-23T07:11:04.563Z,62.40
2024-04-23T07:12:07.391Z,62.58
2024-04-23T07:13:09.455Z,62.29
2024-04-23T07:14:12.039Z,62.30
2024-04-23T07:15:16.129Z,62.42
2024-04-23T07:16:18.949Z,62.28
2024-04-23T07:17:21.200Z,61.69
2024-04-23T07:18:23.792Z,61.46
2024-04-23T07:19:26.281Z,61.39
2024-04-23T07:20:29.165Z,61.33
2024-04-23T07:21:31.711Z,61.23
2024-04-23T07:22:34.205Z,61.34
2024-04-23T07:23:36.649Z,61.05
2024-04-23T07:24:38.927Z,60.62
2024-04-23T07:25:41.265Z,60.24
2024-04-23T07:26:43.975Z,59.80
2024-04-23T07:27:53.082Z,60.05
2024-04-23T07:28:58.108Z,59.69
2024-04-23T07:30:01.185Z,59.30
2024-04-23T07:31:03.638Z,59.14
2024-04-23T07:32:07.529Z,59.35
2024-04-23T07:33:20.619Z,59.30
2024-04-23T07:34:23.417Z,58.45
2024-04-23T07:35:27.102Z,58.08
2024-04-23T07:36:30.323Z,58.02
2024-04-23T07:37:36.463Z,57.10
2024-04-23T07:38:40.184Z,57.46
2024-04-23T07:39:44.649Z,57.56
2024-04-23T07:40:49.154Z,57.19
2024-04-23T07:41:53.655Z,56.97
2024-04-23T07:42:56.125Z,56.49
2024-04-23T07:43:58.617Z,56.10
2024-04-23T07:45:01.081Z,55.88
2024-04-23T07:46:04.295Z,55.89
2024-04-23T07:47:08.176Z,55.79
2024-04-23T07:48:14.004Z,55.27
2024-04-23T07:49:18.409Z,54.89
2024-04-23T07:50:22.063Z,54.73
2024-04-23T07:51:25.789Z,54.22
2024-04-23T07:52:31.722Z,54.49
2024-04-23T07:53:34.096Z,54.31
2024-04-23T07:54:37.367Z,54.20
2024-04-23T07:55:40.154Z,54.47
2024-04-23T07:56:44.699Z,55.10
2024-04-23T07:57:47.941Z,55.08
2024-04-23T07:58:50.725Z,54.73
2024-04-23T07:59:53.325Z,54.79
2024-04-23T08:00:56.242Z,54.99
2024-04-23T08:01:58.725Z,55.12
2024-04-23T08:03:03.162Z,55.13
2024-04-23T08:04:07.395Z,55.89
2024-04-23T08:05:11.721Z,55.54
2024-04-23T08:06:14.538Z,54.80
2024-04-23T08:07:16.878Z,54.43
2024-04-23T08:08:21.662Z,53.95
2024-04-23T08:09:24.274Z,53.79
2024-04-23T08:10:28.283Z,54.07
2024-04-23T08:11:30.707Z,53.99
2024-04-23T08:12:33.506Z,54.41
2024-04-23T08:13:35.948Z,54.44
2024-04-23T08:14:38.409Z,54.52
2024-04-23T08:15:41.186Z,54.45
2024-04-23T08:16:47.186Z,53.84
2024-04-23T08:17:49.734Z,53.98
2024-04-23T08:18:54.121Z,54.18
2024-04-23T08:19:56.774Z,53.79
2024-04-23T08:21:01.910Z,53.69
2024-04-23T08:22:04.777Z,53.77
2024-04-23T08:23:09.135Z,53.48
2024-04-23T08:24:11.821Z,53.25
2024-04-23T08:25:16.637Z,53.56
2024-04-23T08:26:19.416Z,53.59
2024-04-23T08:27:21.890Z,53.48
2024-04-23T08:28:24.452Z,53.28
2024-04-23T08:29:28.185Z,52.73
2024-04-23T08:30:30.741Z,52.65
2024-04-23T08:31:34.682Z,53.05
2024-04-23T08:32:37.252Z,52.43
2024-04-23T08:33:42.967Z,52.09
2024-04-23T08:34:45.487Z,51.38
2024-04-23T08:35:48.905Z,50.92
2024-04-23T08:36:52.386Z,50.48
2024-04-23T08:37:55.056Z,50.76
2024-04-23T08:38:58.919Z,50.00
2024-04-23T08:40:01.921Z,50.26
2024-04-23T08:41:06.513Z,50.16
2024-04-23T08:42:12.493Z,50.42
2024-04-23T08:43:22.546Z,51.11
2024-04-23T08:44:27.026Z,51.45
2024-04-23T08:45:33.499Z,50.72
2024-04-23T08:46:36.279Z,50.88
2024-04-23T08:47:39.833Z,51.26
2024-04-23T08:48:43.970Z,51.03
2024-04-23T08:49:48.088Z,50.39
2024-04-23T08:50:52.846Z,48.96
2024-04-23T08:51:59.539Z,47.17
2024-04-23T08:53:04.143Z,46.40
2024-04-23T08:54:06.853Z,47.08
2024-04-23T08:55:09.738Z,47.10
2024-04-23T08:56:19.902Z,46.84
2024-04-23T08:57:22.648Z,47.50
2024-04-23T08:58:27.827Z,46.90
2024-04-23T08:59:32.375Z,47.98
2024-04-23T09:00:48.748Z,48.22
2024-04-23T09:01:53.536Z,48.05
2024-04-23T09:02:58.203Z,48.20
2024-04-23T09:04:03.153Z,49.24
2024-04-23T09:05:06.142Z,49.32
2024-04-23T09:06:09.267Z,49.65
2024-04-23T09:07:24.400Z,48.61
2024-04-23T09:08:19.772Z,48.64
2024-04-23T09:09:41.346Z,48.50
2024-04-23T09:10:46.029Z,48.67
2024-04-23T09:11:52.745Z,48.94
2024-04-23T09:12:57.496Z,49.70
2024-04-23T09:14:21.961Z,50.31
2024-04-23T09:15:30.993Z,49.56
2024-04-23T09:16:41.237Z,50.28
2024-04-23T09:17:46.414Z,50.59
2024-04-23T09:18:49.368Z,50.49
2024-04-23T09:19:54.705Z,50.53
2024-04-23T09:20:58.249Z,50.92
2024-04-23T09:22:09.993Z,51.01
2024-04-23T09:23:14.699Z,51.37
2024-04-23T09:24:26.874Z,51.17
2024-04-23T09:25:37.040Z,51.39
2024-04-23T09:26:40.393Z,51.28
2024-04-23T09:27:42.993Z,51.36
2024-04-23T09:29:06.336Z,50.63
2024-04-23T09:30:10.123Z,51.13
2024-04-23T09:31:13.549Z,52.01
2024-04-23T09:32:17.411Z,52.37
2024-04-23T09:33:24.560Z,52.63
2024-04-23T09:34:33.420Z,52.11
2024-04-23T09:35:33.221Z,51.42
2024-04-23T09:36:35.831Z,50.73
2024-04-23T09:37:38.155Z,51.04
2024-04-23T09:38:41.460Z,49.65
2024-04-23T09:39:46.005Z,49.49
2024-04-23T09:40:48.231Z,49.63
2024-04-23T09:41:57.297Z,50.24
2024-04-23T09:42:59.987Z,50.06
2024-04-23T09:44:02.345Z,49.33
2024-04-23T09:45:06.222Z,49.42
2024-04-23T09:46:11.170Z,49.42
2024-04-23T09:47:13.701Z,49.24
2024-04-23T09:48:16.391Z,48.54
2024-04-23T09:49:19.448Z,48.35
2024-04-23T09:50:29.566Z,48.43
2024-04-23T09:51:33.770Z,49.05
2024-04-23T09:52:36.149Z,48.88
2024-04-23T09:53:43.071Z,48.50
2024-04-23T09:54:45.692Z,48.94
2024-04-23T09:55:55.883Z,48.91
2024-04-23T09:57:02.556Z,49.14
2024-04-23T09:58:04.985Z,48.87
2024-04-23T09:59:13.157Z,49.10
2024-04-23T10:00:16.106Z,49.00
2024-04-23T10:01:21.375Z,48.23
2024-04-23T10:02:28.780Z,48.50
2024-04-23T10:03:34.396Z,48.81
2024-04-23T10:04:38.534Z,48.56
2024-04-23T10:05:43.041Z,48.27
2024-04-23T10:06:47.830Z,47.90
2024-04-23T10:08:13.789Z,47.34
2024-04-23T10:09:18.650Z,47.67
2024-04-23T10:10:24.329Z,48.36
2024-04-23T10:11:28.755Z,48.80
2024-04-23T10:12:32.063Z,49.28
2024-04-23T10:13:37.302Z,49.54
2024-04-23T10:14:52.258Z,50.14
2024-04-23T10:15:56.860Z,50.24
2024-04-23T10:17:18.048Z,49.69
2024-04-23T10:18:26.544Z,50.05
2024-04-23T10:19:30.083Z,50.36
2024-04-23T10:20:36.377Z,50.35
2024-04-23T10:21:42.110Z,50.41
2024-04-23T10:22:45.243Z,50.10
2024-04-23T10:23:47.975Z,49.33
2024-04-23T10:24:51.105Z,49.34
2024-04-23T10:25:55.299Z,49.75
2024-04-23T10:26:57.748Z,49.52
2024-04-23T10:28:00.165Z,48.41
2024-04-23T10:29:02.480Z,48.45
2024-04-23T10:30:06.235Z,48.46
2024-04-23T10:31:10.325Z,48.42
2024-04-23T10:32:13.980Z,48.72
2024-04-23T10:33:17.849Z,48.72
2024-04-23T10:34:21.496Z,48.62
2024-04-23T10:35:24.322Z,48.10
2024-04-23T10:36:27.825Z,48.01
2024-04-23T10:37:35.220Z,47.47
2024-04-23T10:38:37.720Z,47.06
2024-04-23T10:39:40.984Z,46.53
2024-04-23T10:40:52.542Z,46.60
2024-04-23T10:41:56.554Z,46.83
2024-04-23T10:42:59.025Z,47.78
2024-04-23T10:44:02.570Z,47.97
2024-04-23T10:45:06.892Z,47.72
2024-04-23T10:46:12.005Z,48.27
2024-04-23T10:47:16.324Z,48.41
2024-04-23T10:48:26.785Z,48.91
2024-04-23T10:49:29.354Z,49.42
2024-04-23T10:50:32.046Z,48.89
2024-04-23T10:51:34.868Z,48.81
2024-04-23T10:52:37.195Z,48.54
2024-04-23T10:53:39.564Z,48.76
2024-04-23T10:54:41.891Z,48.31
2024-04-23T10:55:49.447Z,48.73
2024-04-23T10:57:02.601Z,49.00
2024-04-23T10:58:07.779Z,49.14
2024-04-23T10:59:14.199Z,49.46
2024-04-23T11:00:16.900Z,48.63
2024-04-23T11:01:24.317Z,48.65
2024-04-23T11:02:26.921Z,48.68
2024-04-23T11:03:30.823Z,47.43
2024-04-23T11:04:47.106Z,46.37
2024-04-23T11:05:50.064Z,46.11
2024-04-23T11:06:56.579Z,45.92
2024-04-23T11:08:06.362Z,46.18
2024-04-23T11:09:18.789Z,46.74
2024-04-23T11:10:21.179Z,46.50
2024-04-23T11:11:23.867Z,45.44
2024-04-23T11:12:27.466Z,45.52
2024-04-23T11:13:37.418Z,44.84
2024-04-23T11:14:39.665Z,45.06
2024-04-23T11:15:42.140Z,45.04
2024-04-23T11:16:44.774Z,45.29
2024-04-23T11:17:47.244Z,45.81
2024-04-23T11:18:51.618Z,45.48
2024-04-23T11:19:54.618Z,44.71
2024-04-23T11:20:58.872Z,45.37
2024-04-23T11:22:02.060Z,46.31
2024-04-23T11:23:06.236Z,46.87
2024-04-23T11:24:11.217Z,47.20
2024-04-23T11:25:17.379Z,46.91
2024-04-23T11:26:23.152Z,47.29
2024-04-23T11:27:25.635Z,48.25
2024-04-23T11:28:28.009Z,48.39
2024-04-23T11:29:30.452Z,48.50
2024-04-23T11:30:33.121Z,47.94
2024-04-23T11:31:35.711Z,47.96
2024-04-23T11:32:38.483Z,48.44
2024-04-23T11:33:42.264Z,48.01
2024-04-23T11:34:46.321Z,48.21
2024-04-23T11:35:52.963Z,48.84
2024-04-23T11:36:55.204Z,49.18
2024-04-23T11:37:58.039Z,49.06
2024-04-23T11:39:00.524Z,48.43
2024-04-23T11:40:03.524Z,47.55
2024-04-23T11:41:07.105Z,46.66
2024-04-23T11:42:12.369Z,46.91
2024-04-23T11:43:18.789Z,47.56
2024-04-23T11:44:24.545Z,47.11
2024-04-23T11:45:26.856Z,46.19
2024-04-23T11:46:30.185Z,46.94
2024-04-23T11:47:32.739Z,46.90
2024-04-23T11:48:35.671Z,46.86
2024-04-23T11:49:38.613Z,47.18
2024-04-23T11:50:42.184Z,47.63
2024-04-23T11:51:44.704Z,47.63
2024-04-23T11:52:48.028Z,48.18
2024-04-23T11:53:50.508Z,47.82
2024-04-23T11:54:54.067Z,48.13
2024-04-23T11:55:57.911Z,48.21
2024-04-23T11:57:00.448Z,48.37
2024-04-23T11:58:02.826Z,48.97
2024-04-23T11:59:05.228Z,48.57
2024-04-23T12:00:08.627Z,48.32
2024-04-23T12:01:11.029Z,48.12
2024-04-23T12:02:16.511Z,47.86
2024-04-23T12:03:19.354Z,48.00
2024-04-23T12:04:22.275Z,48.01
2024-04-23T12:05:26.161Z,47.89
2024-04-23T12:06:29.220Z,47.09
2024-04-23T12:07:31.876Z,46.79
2024-04-23T12:08:34.556Z,47.18
2024-04-23T12:09:37.251Z,47.25
2024-04-23T12:10:41.913Z,47.23
2024-04-23T12:11:56.086Z,47.06
2024-04-23T12:12:58.606Z,46.67
2024-04-23T12:14:00.734Z,46.02
2024-04-23T12:15:03.913Z,46.35
2024-04-23T12:16:06.963Z,46.47
2024-04-23T12:17:09.187Z,46.18
2024-04-23T12:18:11.768Z,45.88
2024-04-23T12:19:14.418Z,46.18
2024-04-23T12:20:17.459Z,45.72
2024-04-23T12:21:19.667Z,45.80
2024-04-23T12:22:21.988Z,45.95
2024-04-23T12:23:24.739Z,45.43
2024-04-23T12:24:29.392Z,45.42
2024-04-23T12:25:34.064Z,45.79
2024-04-23T12:26:36.768Z,45.64
2024-04-23T12:27:41.527Z,45.32
2024-04-23T12:28:44.313Z,45.78
2024-04-23T12:29:46.511Z,45.46
2024-04-23T12:30:49.278Z,44.43
2024-04-23T12:32:00.190Z,43.59
2024-04-23T12:33:13.494Z,42.58
2024-04-23T12:34:18.578Z,42.24
2024-04-23T12:35:21.040Z,41.45
2024-04-23T12:36:24.108Z,41.41
2024-04-23T12:37:26.468Z,41.55
2024-04-23T12:38:28.637Z,42.10
2024-04-23T12:39:31.018Z,42.68
2024-04-23T12:40:33.795Z,42.78
2024-04-23T12:41:36.150Z,42.37
2024-04-23T12:42:42.404Z,42.45
2024-04-23T12:43:43.809Z,42.14
2024-04-23T12:44:46.158Z,41.92
2024-04-23T12:45:48.574Z,41.97
2024-04-23T12:46:50.822Z,40.55
2024-04-23T12:47:53.209Z,39.34
2024-04-23T12:48:58.099Z,39.25
2024-04-23T12:50:02.914Z,39.12
2024-04-23T12:51:07.379Z,38.96
2024-04-23T12:52:09.909Z,38.92
2024-04-23T12:53:12.390Z,39.03
2024-04-23T12:54:15.471Z,38.78
2024-04-23T12:55:19.901Z,38.74
2024-04-23T12:56:23.923Z,38.72
2024-04-23T12:57:26.480Z,39.23
2024-04-23T12:58:28.965Z,39.75
2024-04-23T12:59:31.409Z,39.69
2024-04-23T13:00:33.861Z,40.32
2024-04-23T13:01:42.427Z,40.39
2024-04-23T13:02:42.971Z,40.13
2024-04-23T13:03:45.433Z,39.77
2024-04-23T13:04:47.944Z,39.81
2024-04-23T13:05:50.398Z,39.01
2024-04-23T13:06:52.955Z,39.67
2024-04-23T13:07:55.286Z,39.09
2024-04-23T13:08:57.793Z,39.43
2024-04-23T13:09:59.995Z,39.85
2024-04-23T13:11:02.315Z,41.06
2024-04-23T13:12:06.982Z,40.45
2024-04-23T13:13:09.441Z,40.48
2024-04-23T13:14:11.726Z,40.46
2024-04-23T13:15:14.214Z,40.99
2024-04-23T13:16:16.713Z,41.04
2024-04-23T13:17:18.976Z,41.80
2024-04-23T13:18:21.339Z,42.68
2024-04-23T13:19:23.615Z,43.07
2024-04-23T13:20:26.224Z,43.54
2024-04-23T13:21:28.520Z,43.16
2024-04-23T13:22:30.844Z,43.19
2024-04-23T13:23:33.057Z,43.34
2024-04-23T13:24:35.181Z,43.79
2024-04-23T13:25:37.928Z,43.79
2024-04-23T13:26:40.369Z,43.36
2024-04-23T13:27:43.128Z,43.55
2024-04-23T13:28:45.437Z,42.95
2024-04-23T13:29:48.118Z,43.08
2024-04-23T13:30:54.789Z,43.49
2024-04-23T13:31:57.766Z,44.15
2024-04-23T13:33:00.469Z,44.16
2024-04-23T13:34:03.050Z,44.12
2024-04-23T13:35:05.897Z,43.86
2024-04-23T13:36:10.392Z,43.22
2024-04-23T13:37:12.837Z,43.71
2024-04-23T13:38:15.081Z,43.86
2024-04-23T13:39:17.562Z,44.00
2024-04-23T13:40:20.467Z,43.80
2024-04-23T13:41:22.726Z,43.85